Ophir, Kentucky
Current Conditions -  °F | °C
As of 6:15 PM on Saturday 25 Oct 2014 (Local Time) from KSJS Reporting Station
Scattered Clouds Scattered Clouds  
Wind Chill: 65°   Ceiling: Unl
Heat Index: 65°   Visibility: 10mi
Dew Point: 52°   Wind: 6mph
Humidity: 62%   Direction: 240°WSW
Pressure: 29.96"   Gusts: NA
Location:  37.91°N, 83.01°W
Report Text: KSJS 252215Z AUTO 24005KT 10SM SCT030 19/11 A2996 RMK AO2 T01850112
Loading
Personal Weather Stations






























Interactive Weather Map
Tropical Storm Tracking
New forecast layout! Learn more

10-Day Weather Forecast

Advertisements
Track Severe Weather on mobile